sensor_id;sensor_type;location;lat;lon;timestamp;temperature;humidity
16767;DHT22;8501;49.926;8.404;2023-06-19T00:01:54;26.70;95.10
16767;DHT22;8501;49.926;8.404;2023-06-19T00:04:20;26.70;95.20
16767;DHT22;8501;49.926;8.404;2023-06-19T00:06:46;26.70;95.10
16767;DHT22;8501;49.926;8.404;2023-06-19T00:09:11;26.70;94.90
16767;DHT22;8501;49.926;8.404;2023-06-19T00:11:37;26.60;95.20
16767;DHT22;8501;49.926;8.404;2023-06-19T00:14:02;26.60;94.80
16767;DHT22;8501;49.926;8.404;2023-06-19T00:16:28;26.60;94.80
16767;DHT22;8501;49.926;8.404;2023-06-19T00:18:53;26.60;95.00
16767;DHT22;8501;49.926;8.404;2023-06-19T00:21:22;26.60;95.40
16767;DHT22;8501;49.926;8.404;2023-06-19T00:23:50;26.60;95.00
16767;DHT22;8501;49.926;8.404;2023-06-19T00:26:16;26.60;95.10
16767;DHT22;8501;49.926;8.404;2023-06-19T00:28:42;26.50;95.30
16767;DHT22;8501;49.926;8.404;2023-06-19T00:31:11;26.50;95.30
16767;DHT22;8501;49.926;8.404;2023-06-19T00:33:39;26.40;95.50
16767;DHT22;8501;49.926;8.404;2023-06-19T00:36:09;26.10;96.80
16767;DHT22;8501;49.926;8.404;2023-06-19T00:38:36;25.90;97.70
16767;DHT22;8501;49.926;8.404;2023-06-19T00:41:01;25.80;98.30
16767;DHT22;8501;49.926;8.404;2023-06-19T00:43:28;25.90;98.40
16767;DHT22;8501;49.926;8.404;2023-06-19T00:45:53;26.00;97.80
16767;DHT22;8501;49.926;8.404;2023-06-19T00:48:19;26.00;97.00
16767;DHT22;8501;49.926;8.404;2023-06-19T00:50:45;26.00;97.40
16767;DHT22;8501;49.926;8.404;2023-06-19T00:53:10;26.00;97.30
16767;DHT22;8501;49.926;8.404;2023-06-19T00:55:36;25.90;97.40
16767;DHT22;8501;49.926;8.404;2023-06-19T00:58:02;25.80;97.80
16767;DHT22;8501;49.926;8.404;2023-06-19T01:00:28;25.90;97.80
16767;DHT22;8501;49.926;8.404;2023-06-19T01:02:54;25.90;97.90
16767;DHT22;8501;49.926;8.404;2023-06-19T01:05:19;25.90;97.90
16767;DHT22;8501;49.926;8.404;2023-06-19T01:10:28;25.90;97.60
16767;DHT22;8501;49.926;8.404;2023-06-19T01:13:08;25.90;97.60
16767;DHT22;8501;49.926;8.404;2023-06-19T01:15:36;25.90;97.80
16767;DHT22;8501;49.926;8.404;2023-06-19T01:18:03;25.90;98.00
16767;DHT22;8501;49.926;8.404;2023-06-19T01:20:29;25.90;98.10
16767;DHT22;8501;49.926;8.404;2023-06-19T01:22:56;25.90;98.20
16767;DHT22;8501;49.926;8.404;2023-06-19T01:25:23;25.90;98.40
16767;DHT22;8501;49.926;8.404;2023-06-19T01:27:49;25.90;98.00
16767;DHT22;8501;49.926;8.404;2023-06-19T01:30:16;25.90;97.90
16767;DHT22;8501;49.926;8.404;2023-06-19T01:32:52;25.90;98.10
16767;DHT22;8501;49.926;8.404;2023-06-19T01:35:20;25.80;98.10
16767;DHT22;8501;49.926;8.404;2023-06-19T01:37:47;25.80;98.30
16767;DHT22;8501;49.926;8.404;2023-06-19T01:40:15;25.70;98.50
16767;DHT22;8501;49.926;8.404;2023-06-19T01:42:41;25.70;98.60
16767;DHT22;8501;49.926;8.404;2023-06-19T01:45:08;25.70;98.70
16767;DHT22;8501;49.926;8.404;2023-06-19T01:47:34;25.70;99.10
16767;DHT22;8501;49.926;8.404;2023-06-19T01:50:00;25.60;99.30
16767;DHT22;8501;49.926;8.404;2023-06-19T01:52:26;25.40;99.90
16767;DHT22;8501;49.926;8.404;2023-06-19T01:54:52;25.30;99.90
16767;DHT22;8501;49.926;8.404;2023-06-19T01:57:18;25.10;99.90
16767;DHT22;8501;49.926;8.404;2023-06-19T01:59:44;25.20;99.90
16767;DHT22;8501;49.926;8.404;2023-06-19T02:02:09;25.20;99.90
16767;DHT22;8501;49.926;8.404;2023-06-19T02:04:35;25.30;99.90
16767;DHT22;8501;49.926;8.404;2023-06-19T02:07:01;25.20;99.90
16767;DHT22;8501;49.926;8.404;2023-06-19T02:09:33;25.20;99.90
16767;DHT22;8501;49.926;8.404;2023-06-19T02:11:59;25.20;99.90
16767;DHT22;8501;49.926;8.404;2023-06-19T02:14:24;25.30;99.80
16767;DHT22;8501;49.926;8.404;2023-06-19T02:16:50;25.20;99.90
16767;DHT22;8501;49.926;8.404;2023-06-19T02:19:15;25.20;99.90
16767;DHT22;8501;49.926;8.404;2023-06-19T02:21:41;25.10;99.90
16767;DHT22;8501;49.926;8.404;2023-06-19T02:24:06;25.10;99.90
16767;DHT22;8501;49.926;8.404;2023-06-19T02:26:33;25.10;99.90
16767;DHT22;8501;49.926;8.404;2023-06-19T02:28:58;25.10;99.90
16767;DHT22;8501;49.926;8.404;2023-06-19T02:31:24;25.10;99.90
16767;DHT22;8501;49.926;8.404;2023-06-19T02:33:50;25.10;99.90
16767;DHT22;8501;49.926;8.404;2023-06-19T02:36:16;25.10;99.90
16767;DHT22;8501;49.926;8.404;2023-06-19T02:38:46;25.10;99.90
16767;DHT22;8501;49.926;8.404;2023-06-19T02:41:12;25.00;99.90
16767;DHT22;8501;49.926;8.404;2023-06-19T02:43:42;25.00;99.90
16767;DHT22;8501;49.926;8.404;2023-06-19T02:46:08;24.90;99.90
16767;DHT22;8501;49.926;8.404;2023-06-19T02:48:34;24.90;99.90
16767;DHT22;8501;49.926;8.404;2023-06-19T02:51:00;24.90;99.90
16767;DHT22;8501;49.926;8.404;2023-06-19T02:53:25;24.90;99.90
16767;DHT22;8501;49.926;8.404;2023-06-19T02:55:51;24.90;99.90
16767;DHT22;8501;49.926;8.404;2023-06-19T02:58:16;24.90;99.90
16767;DHT22;8501;49.926;8.404;2023-06-19T03:00:43;24.90;99.90
16767;DHT22;8501;49.926;8.404;2023-06-19T03:03:09;24.90;99.90
16767;DHT22;8501;49.926;8.404;2023-06-19T03:05:34;24.80;99.90
16767;DHT22;8501;49.926;8.404;2023-06-19T03:08:00;24.80;99.90
16767;DHT22;8501;49.926;8.404;2023-06-19T03:10:26;24.70;99.90
16767;DHT22;8501;49.926;8.404;2023-06-19T03:12:51;24.70;99.90
16767;DHT22;8501;49.926;8.404;2023-06-19T03:15:17;24.60;99.90
16767;DHT22;8501;49.926;8.404;2023-06-19T03:17:42;24.60;99.90
16767;DHT22;8501;49.926;8.404;2023-06-19T03:20:08;24.70;99.90
16767;DHT22;8501;49.926;8.404;2023-06-19T03:22:40;24.60;99.90
16767;DHT22;8501;49.926;8.404;2023-06-19T03:25:07;24.60;99.90
16767;DHT22;8501;49.926;8.404;2023-06-19T03:27:33;24.60;99.90
16767;DHT22;8501;49.926;8.404;2023-06-19T03:29:59;24.60;99.90
16767;DHT22;8501;49.926;8.404;2023-06-19T03:32:25;24.60;99.90
16767;DHT22;8501;49.926;8.404;2023-06-19T03:34:50;24.50;99.90
16767;DHT22;8501;49.926;8.404;2023-06-19T03:37:16;24.50;99.90
16767;DHT22;8501;49.926;8.404;2023-06-19T03:39:42;24.50;99.90
16767;DHT22;8501;49.926;8.404;2023-06-19T03:42:08;24.50;99.90
16767;DHT22;8501;49.926;8.404;2023-06-19T03:44:33;24.50;99.90
16767;DHT22;8501;49.926;8.404;2023-06-19T03:46:59;24.40;99.90
16767;DHT22;8501;49.926;8.404;2023-06-19T03:49:25;24.50;99.90
16767;DHT22;8501;49.926;8.404;2023-06-19T03:51:51;24.40;99.90
16767;DHT22;8501;49.926;8.404;2023-06-19T03:54:16;24.40;99.90
16767;DHT22;8501;49.926;8.404;2023-06-19T03:56:42;24.40;99.90
16767;DHT22;8501;49.926;8.404;2023-06-19T03:59:09;24.30;99.90
16767;DHT22;8501;49.926;8.404;2023-06-19T04:01:34;24.30;99.90
16767;DHT22;8501;49.926;8.404;2023-06-19T04:04:00;24.30;99.90
16767;DHT22;8501;49.926;8.404;2023-06-19T04:06:26;24.30;99.90
16767;DHT22;8501;49.926;8.404;2023-06-19T04:08:52;24.30;99.90
16767;DHT22;8501;49.926;8.404;2023-06-19T04:11:17;24.40;99.90
16767;DHT22;8501;49.926;8.404;2023-06-19T04:13:43;24.30;99.90
16767;DHT22;8501;49.926;8.404;2023-06-19T04:16:08;24.30;99.90
16767;DHT22;8501;49.926;8.404;2023-06-19T04:18:34;24.30;99.90
16767;DHT22;8501;49.926;8.404;2023-06-19T04:21:00;24.30;99.90
16767;DHT22;8501;49.926;8.404;2023-06-19T04:23:26;24.30;99.90
16767;DHT22;8501;49.926;8.404;2023-06-19T04:25:52;24.30;99.90
16767;DHT22;8501;49.926;8.404;2023-06-19T04:28:17;24.20;99.90
16767;DHT22;8501;49.926;8.404;2023-06-19T04:30:43;24.30;99.90
16767;DHT22;8501;49.926;8.404;2023-06-19T04:33:08;24.20;99.90
16767;DHT22;8501;49.926;8.404;2023-06-19T04:35:34;24.20;99.90
16767;DHT22;8501;49.926;8.404;2023-06-19T04:38:08;24.20;99.90
16767;DHT22;8501;49.926;8.404;2023-06-19T04:40:34;24.20;99.90
16767;DHT22;8501;49.926;8.404;2023-06-19T04:43:01;24.20;99.90
16767;DHT22;8501;49.926;8.404;2023-06-19T04:45:28;24.20;99.90
16767;DHT22;8501;49.926;8.404;2023-06-19T04:47:53;24.20;99.90
16767;DHT22;8501;49.926;8.404;2023-06-19T04:50:20;24.20;99.90
16767;DHT22;8501;49.926;8.404;2023-06-19T04:52:45;24.20;99.90
16767;DHT22;8501;49.926;8.404;2023-06-19T04:55:12;24.20;99.90
16767;DHT22;8501;49.926;8.404;2023-06-19T04:57:38;24.20;99.90
16767;DHT22;8501;49.926;8.404;2023-06-19T05:00:05;24.30;99.90
16767;DHT22;8501;49.926;8.404;2023-06-19T05:02:32;24.30;99.90
16767;DHT22;8501;49.926;8.404;2023-06-19T05:04:59;24.30;99.90
16767;DHT22;8501;49.926;8.404;2023-06-19T05:07:32;24.30;99.90
16767;DHT22;8501;49.926;8.404;2023-06-19T05:09:58;24.30;99.90
16767;DHT22;8501;49.926;8.404;2023-06-19T05:12:24;24.30;99.90
16767;DHT22;8501;49.926;8.404;2023-06-19T05:14:50;24.30;99.90
16767;DHT22;8501;49.926;8.404;2023-06-19T05:17:16;24.30;99.90
16767;DHT22;8501;49.926;8.404;2023-06-19T05:19:41;24.30;99.90
16767;DHT22;8501;49.926;8.404;2023-06-19T05:22:07;24.30;99.90
16767;DHT22;8501;49.926;8.404;2023-06-19T05:24:33;24.30;99.90
16767;DHT22;8501;49.926;8.404;2023-06-19T05:26:59;24.30;99.90
16767;DHT22;8501;49.926;8.404;2023-06-19T05:29:24;24.20;99.90
16767;DHT22;8501;49.926;8.404;2023-06-19T05:31:50;24.20;99.90
16767;DHT22;8501;49.926;8.404;2023-06-19T05:34:16;24.30;99.90
16767;DHT22;8501;49.926;8.404;2023-06-19T05:36:42;24.30;99.90
16767;DHT22;8501;49.926;8.404;2023-06-19T05:39:10;24.30;99.90
16767;DHT22;8501;49.926;8.404;2023-06-19T05:41:36;24.30;99.90
16767;DHT22;8501;49.926;8.404;2023-06-19T05:44:01;24.30;99.90
16767;DHT22;8501;49.926;8.404;2023-06-19T05:46:27;24.30;99.90
16767;DHT22;8501;49.926;8.404;2023-06-19T05:48:53;24.30;99.90
16767;DHT22;8501;49.926;8.404;2023-06-19T05:51:20;24.30;99.90
16767;DHT22;8501;49.926;8.404;2023-06-19T05:53:46;24.20;99.90
16767;DHT22;8501;49.926;8.404;2023-06-19T05:56:12;24.30;99.90
16767;DHT22;8501;49.926;8.404;2023-06-19T05:58:38;24.20;99.90
16767;DHT22;8501;49.926;8.404;2023-06-19T06:01:04;24.20;99.90
16767;DHT22;8501;49.926;8.404;2023-06-19T06:03:30;24.30;99.90
16767;DHT22;8501;49.926;8.404;2023-06-19T06:05:56;24.30;99.90
16767;DHT22;8501;49.926;8.404;2023-06-19T06:08:31;24.20;99.90
16767;DHT22;8501;49.926;8.404;2023-06-19T06:10:57;24.20;99.90
16767;DHT22;8501;49.926;8.404;2023-06-19T06:13:22;24.20;99.90
16767;DHT22;8501;49.926;8.404;2023-06-19T06:15:48;24.20;99.90
16767;DHT22;8501;49.926;8.404;2023-06-19T06:18:14;24.30;99.90
16767;DHT22;8501;49.926;8.404;2023-06-19T06:20:40;24.30;99.90
16767;DHT22;8501;49.926;8.404;2023-06-19T06:23:06;24.30;99.90
16767;DHT22;8501;49.926;8.404;2023-06-19T06:25:31;24.30;99.90
16767;DHT22;8501;49.926;8.404;2023-06-19T06:27:57;24.30;99.90
16767;DHT22;8501;49.926;8.404;2023-06-19T06:30:22;24.40;99.90
16767;DHT22;8501;49.926;8.404;2023-06-19T06:32:49;24.40;99.90
16767;DHT22;8501;49.926;8.404;2023-06-19T06:35:15;24.30;99.90
16767;DHT22;8501;49.926;8.404;2023-06-19T06:37:41;24.20;99.90
16767;DHT22;8501;49.926;8.404;2023-06-19T06:40:07;24.20;99.90
16767;DHT22;8501;49.926;8.404;2023-06-19T06:42:37;24.20;99.90
16767;DHT22;8501;49.926;8.404;2023-06-19T06:45:04;24.20;99.90
16767;DHT22;8501;49.926;8.404;2023-06-19T06:47:30;24.20;99.90
16767;DHT22;8501;49.926;8.404;2023-06-19T06:49:56;24.20;99.90
16767;DHT22;8501;49.926;8.404;2023-06-19T06:52:22;24.30;99.90
16767;DHT22;8501;49.926;8.404;2023-06-19T06:54:47;24.30;99.90
16767;DHT22;8501;49.926;8.404;2023-06-19T06:57:13;24.30;99.90
16767;DHT22;8501;49.926;8.404;2023-06-19T06:59:38;24.50;99.90
16767;DHT22;8501;49.926;8.404;2023-06-19T07:02:04;24.50;99.90
16767;DHT22;8501;49.926;8.404;2023-06-19T07:04:30;24.60;99.90
16767;DHT22;8501;49.926;8.404;2023-06-19T07:06:55;24.60;99.90
16767;DHT22;8501;49.926;8.404;2023-06-19T07:09:21;24.60;99.90
16767;DHT22;8501;49.926;8.404;2023-06-19T07:11:46;24.60;99.90
16767;DHT22;8501;49.926;8.404;2023-06-19T07:14:12;24.70;99.90
16767;DHT22;8501;49.926;8.404;2023-06-19T07:16:38;24.70;99.90
16767;DHT22;8501;49.926;8.404;2023-06-19T07:19:03;24.70;99.90
16767;DHT22;8501;49.926;8.404;2023-06-19T07:21:31;24.80;99.90
16767;DHT22;8501;49.926;8.404;2023-06-19T07:23:57;24.70;99.90
16767;DHT22;8501;49.926;8.404;2023-06-19T07:26:23;24.70;99.90
16767;DHT22;8501;49.926;8.404;2023-06-19T07:28:49;24.70;99.90
16767;DHT22;8501;49.926;8.404;2023-06-19T07:31:14;24.70;99.90
16767;DHT22;8501;49.926;8.404;2023-06-19T07:33:40;24.70;99.90
16767;DHT22;8501;49.926;8.404;2023-06-19T07:36:06;24.80;99.90
16767;DHT22;8501;49.926;8.404;2023-06-19T07:38:31;24.80;99.90
16767;DHT22;8501;49.926;8.404;2023-06-19T07:40:57;24.80;99.90
16767;DHT22;8501;49.926;8.404;2023-06-19T07:43:24;24.80;99.90
16767;DHT22;8501;49.926;8.404;2023-06-19T07:45:50;24.90;99.90
16767;DHT22;8501;49.926;8.404;2023-06-19T07:48:16;25.00;99.90
16767;DHT22;8501;49.926;8.404;2023-06-19T07:50:42;25.00;99.90
16767;DHT22;8501;49.926;8.404;2023-06-19T07:53:07;25.10;99.90
16767;DHT22;8501;49.926;8.404;2023-06-19T07:55:33;25.10;99.90
16767;DHT22;8501;49.926;8.404;2023-06-19T07:58:01;25.10;99.90
16767;DHT22;8501;49.926;8.404;2023-06-19T08:00:26;25.10;99.90
16767;DHT22;8501;49.926;8.404;2023-06-19T08:02:52;25.10;99.90
16767;DHT22;8501;49.926;8.404;2023-06-19T08:05:17;25.20;99.90
16767;DHT22;8501;49.926;8.404;2023-06-19T08:07:43;25.30;99.90
16767;DHT22;8501;49.926;8.404;2023-06-19T08:10:09;25.30;99.90
16767;DHT22;8501;49.926;8.404;2023-06-19T08:12:35;25.40;99.90
16767;DHT22;8501;49.926;8.404;2023-06-19T08:15:00;25.40;99.90
16767;DHT22;8501;49.926;8.404;2023-06-19T08:17:26;25.40;99.90
16767;DHT22;8501;49.926;8.404;2023-06-19T08:19:51;25.50;99.90
16767;DHT22;8501;49.926;8.404;2023-06-19T08:22:17;25.50;99.90
16767;DHT22;8501;49.926;8.404;2023-06-19T08:24:42;25.60;99.90
16767;DHT22;8501;49.926;8.404;2023-06-19T08:27:08;25.60;99.90
16767;DHT22;8501;49.926;8.404;2023-06-19T08:29:34;25.60;99.90
16767;DHT22;8501;49.926;8.404;2023-06-19T08:31:59;25.70;99.90
16767;DHT22;8501;49.926;8.404;2023-06-19T08:34:25;25.70;99.90
16767;DHT22;8501;49.926;8.404;2023-06-19T08:36:51;25.70;99.90
16767;DHT22;8501;49.926;8.404;2023-06-19T08:39:17;25.80;99.90
16767;DHT22;8501;49.926;8.404;2023-06-19T08:41:43;25.90;99.90
16767;DHT22;8501;49.926;8.404;2023-06-19T08:44:09;25.90;99.90
16767;DHT22;8501;49.926;8.404;2023-06-19T08:46:35;25.90;99.90
16767;DHT22;8501;49.926;8.404;2023-06-19T08:49:02;25.90;99.90
16767;DHT22;8501;49.926;8.404;2023-06-19T08:51:29;26.00;99.90
16767;DHT22;8501;49.926;8.404;2023-06-19T08:54:02;26.10;99.90
16767;DHT22;8501;49.926;8.404;2023-06-19T08:56:29;26.10;99.90
16767;DHT22;8501;49.926;8.404;2023-06-19T08:59:08;26.20;99.90
16767;DHT22;8501;49.926;8.404;2023-06-19T09:01:34;26.20;99.90
16767;DHT22;8501;49.926;8.404;2023-06-19T09:03:59;26.30;99.90
16767;DHT22;8501;49.926;8.404;2023-06-19T09:06:25;26.40;99.90
16767;DHT22;8501;49.926;8.404;2023-06-19T09:09:00;26.50;99.90
16767;DHT22;8501;49.926;8.404;2023-06-19T09:11:25;26.40;99.90
16767;DHT22;8501;49.926;8.404;2023-06-19T09:13:57;26.40;99.90
16767;DHT22;8501;49.926;8.404;2023-06-19T09:16:40;26.40;99.90
16767;DHT22;8501;49.926;8.404;2023-06-19T09:19:06;26.40;99.90
16767;DHT22;8501;49.926;8.404;2023-06-19T09:21:31;26.30;99.90
16767;DHT22;8501;49.926;8.404;2023-06-19T09:24:07;26.30;99.90
16767;DHT22;8501;49.926;8.404;2023-06-19T09:26:34;26.40;99.90
16767;DHT22;8501;49.926;8.404;2023-06-19T09:29:10;26.50;99.90
16767;DHT22;8501;49.926;8.404;2023-06-19T09:31:39;26.50;99.90
16767;DHT22;8501;49.926;8.404;2023-06-19T09:34:07;26.60;99.90
16767;DHT22;8501;49.926;8.404;2023-06-19T09:36:33;26.70;99.90
16767;DHT22;8501;49.926;8.404;2023-06-19T09:39:02;26.80;99.90
16767;DHT22;8501;49.926;8.404;2023-06-19T09:41:29;26.90;99.90
16767;DHT22;8501;49.926;8.404;2023-06-19T09:43:56;26.90;99.90
16767;DHT22;8501;49.926;8.404;2023-06-19T09:46:28;27.00;99.90
16767;DHT22;8501;49.926;8.404;2023-06-19T09:48:55;27.00;99.90
16767;DHT22;8501;49.926;8.404;2023-06-19T09:51:37;27.10;99.90
16767;DHT22;8501;49.926;8.404;2023-06-19T09:54:05;27.10;99.90
16767;DHT22;8501;49.926;8.404;2023-06-19T09:56:32;27.10;99.90
16767;DHT22;8501;49.926;8.404;2023-06-19T09:58:59;27.10;99.90
16767;DHT22;8501;49.926;8.404;2023-06-19T10:01:27;27.30;99.90
16767;DHT22;8501;49.926;8.404;2023-06-19T10:04:05;27.40;99.90
16767;DHT22;8501;49.926;8.404;2023-06-19T10:06:31;27.40;99.90
16767;DHT22;8501;49.926;8.404;2023-06-19T10:09:07;27.30;99.90
16767;DHT22;8501;49.926;8.404;2023-06-19T10:11:52;27.20;99.90
16767;DHT22;8501;49.926;8.404;2023-06-19T10:14:22;27.20;99.90
16767;DHT22;8501;49.926;8.404;2023-06-19T10:16:48;27.10;99.90
16767;DHT22;8501;49.926;8.404;2023-06-19T10:19:20;27.00;99.90
16767;DHT22;8501;49.926;8.404;2023-06-19T10:21:51;27.10;99.90
16767;DHT22;8501;49.926;8.404;2023-06-19T10:24:18;27.10;99.90
16767;DHT22;8501;49.926;8.404;2023-06-19T10:26:59;27.00;99.90
16767;DHT22;8501;49.926;8.404;2023-06-19T10:29:25;27.10;99.90
16767;DHT22;8501;49.926;8.404;2023-06-19T10:31:52;27.00;99.90
16767;DHT22;8501;49.926;8.404;2023-06-19T10:34:18;27.00;99.90
16767;DHT22;8501;49.926;8.404;2023-06-19T10:36:44;27.00;99.90
16767;DHT22;8501;49.926;8.404;2023-06-19T10:39:10;27.00;99.90
16767;DHT22;8501;49.926;8.404;2023-06-19T10:41:35;27.20;99.90
16767;DHT22;8501;49.926;8.404;2023-06-19T10:44:06;27.30;99.90
16767;DHT22;8501;49.926;8.404;2023-06-19T10:46:36;27.20;99.90
16767;DHT22;8501;49.926;8.404;2023-06-19T10:49:04;27.20;99.90
16767;DHT22;8501;49.926;8.404;2023-06-19T10:51:31;27.20;99.90
16767;DHT22;8501;49.926;8.404;2023-06-19T10:53:57;27.10;99.90
16767;DHT22;8501;49.926;8.404;2023-06-19T10:56:24;27.20;99.90
16767;DHT22;8501;49.926;8.404;2023-06-19T10:59:11;27.20;99.90
16767;DHT22;8501;49.926;8.404;2023-06-19T11:01:38;27.20;99.90
16767;DHT22;8501;49.926;8.404;2023-06-19T11:04:09;27.20;99.90
16767;DHT22;8501;49.926;8.404;2023-06-19T11:06:36;27.30;99.90
16767;DHT22;8501;49.926;8.404;2023-06-19T11:09:08;27.30;99.90
16767;DHT22;8501;49.926;8.404;2023-06-19T11:11:45;27.30;99.90
16767;DHT22;8501;49.926;8.404;2023-06-19T11:14:12;27.30;99.90
16767;DHT22;8501;49.926;8.404;2023-06-19T11:16:41;27.40;99.90
16767;DHT22;8501;49.926;8.404;2023-06-19T11:19:17;27.30;99.90
16767;DHT22;8501;49.926;8.404;2023-06-19T11:21:46;27.30;99.90
16767;DHT22;8501;49.926;8.404;2023-06-19T11:24:13;27.30;99.90
16767;DHT22;8501;49.926;8.404;2023-06-19T11:26:40;27.30;99.90
16767;DHT22;8501;49.926;8.404;2023-06-19T11:29:31;27.30;99.90
16767;DHT22;8501;49.926;8.404;2023-06-19T11:32:09;27.40;99.90
16767;DHT22;8501;49.926;8.404;2023-06-19T11:34:36;27.50;99.90
16767;DHT22;8501;49.926;8.404;2023-06-19T11:37:22;27.40;99.90
16767;DHT22;8501;49.926;8.404;2023-06-19T11:39:49;27.50;99.90
16767;DHT22;8501;49.926;8.404;2023-06-19T11:42:16;27.60;99.90
16767;DHT22;8501;49.926;8.404;2023-06-19T11:44:59;27.60;99.90
16767;DHT22;8501;49.926;8.404;2023-06-19T11:47:30;27.70;99.90
16767;DHT22;8501;49.926;8.404;2023-06-19T11:49:55;27.70;99.90
16767;DHT22;8501;49.926;8.404;2023-06-19T11:52:21;27.80;99.90
16767;DHT22;8501;49.926;8.404;2023-06-19T11:54:47;27.70;99.90
16767;DHT22;8501;49.926;8.404;2023-06-19T11:57:12;27.80;99.90
16767;DHT22;8501;49.926;8.404;2023-06-19T11:59:39;27.90;99.90
16767;DHT22;8501;49.926;8.404;2023-06-19T12:02:05;28.00;99.90
16767;DHT22;8501;49.926;8.404;2023-06-19T12:04:31;28.10;99.90
16767;DHT22;8501;49.926;8.404;2023-06-19T12:06:57;28.20;99.90
16767;DHT22;8501;49.926;8.404;2023-06-19T12:09:22;28.20;99.90
16767;DHT22;8501;49.926;8.404;2023-06-19T12:11:48;28.20;99.90
16767;DHT22;8501;49.926;8.404;2023-06-19T12:14:13;28.30;99.90
16767;DHT22;8501;49.926;8.404;2023-06-19T12:16:39;28.40;99.90
16767;DHT22;8501;49.926;8.404;2023-06-19T12:19:05;28.50;99.90
16767;DHT22;8501;49.926;8.404;2023-06-19T12:21:30;28.60;99.90
16767;DHT22;8501;49.926;8.404;2023-06-19T12:23:56;28.60;99.90
16767;DHT22;8501;49.926;8.404;2023-06-19T12:26:21;28.70;99.90
16767;DHT22;8501;49.926;8.404;2023-06-19T12:28:50;28.70;99.90
16767;DHT22;8501;49.926;8.404;2023-06-19T12:31:16;28.70;99.90
16767;DHT22;8501;49.926;8.404;2023-06-19T12:33:41;28.70;99.90
16767;DHT22;8501;49.926;8.404;2023-06-19T12:36:10;28.70;99.90
16767;DHT22;8501;49.926;8.404;2023-06-19T12:38:38;28.60;99.90
16767;DHT22;8501;49.926;8.404;2023-06-19T12:41:04;28.70;99.90
16767;DHT22;8501;49.926;8.404;2023-06-19T12:43:30;28.60;99.90
16767;DHT22;8501;49.926;8.404;2023-06-19T12:45:57;28.60;99.90
16767;DHT22;8501;49.926;8.404;2023-06-19T12:48:25;28.70;99.90
16767;DHT22;8501;49.926;8.404;2023-06-19T12:50:50;28.80;99.90
16767;DHT22;8501;49.926;8.404;2023-06-19T12:53:17;28.70;99.90
16767;DHT22;8501;49.926;8.404;2023-06-19T12:55:43;28.70;99.90
16767;DHT22;8501;49.926;8.404;2023-06-19T12:58:09;28.60;99.90
16767;DHT22;8501;49.926;8.404;2023-06-19T13:00:34;28.60;99.90
16767;DHT22;8501;49.926;8.404;2023-06-19T13:03:00;28.60;99.90
16767;DHT22;8501;49.926;8.404;2023-06-19T13:05:26;28.70;99.90
16767;DHT22;8501;49.926;8.404;2023-06-19T13:07:51;28.70;99.90
16767;DHT22;8501;49.926;8.404;2023-06-19T13:10:19;28.70;99.90
16767;DHT22;8501;49.926;8.404;2023-06-19T13:12:44;28.70;99.90
16767;DHT22;8501;49.926;8.404;2023-06-19T13:15:10;28.70;99.90
16767;DHT22;8501;49.926;8.404;2023-06-19T13:17:36;28.80;99.90
16767;DHT22;8501;49.926;8.404;2023-06-19T13:20:01;28.80;99.90
16767;DHT22;8501;49.926;8.404;2023-06-19T13:22:29;28.80;99.90
16767;DHT22;8501;49.926;8.404;2023-06-19T13:24:55;28.90;99.90
16767;DHT22;8501;49.926;8.404;2023-06-19T13:27:21;29.00;99.90
16767;DHT22;8501;49.926;8.404;2023-06-19T13:29:46;29.00;99.90
16767;DHT22;8501;49.926;8.404;2023-06-19T13:32:12;29.10;99.90
16767;DHT22;8501;49.926;8.404;2023-06-19T13:34:37;29.30;99.90
16767;DHT22;8501;49.926;8.404;2023-06-19T13:37:03;29.40;99.90
16767;DHT22;8501;49.926;8.404;2023-06-19T13:39:29;29.40;99.90
16767;DHT22;8501;49.926;8.404;2023-06-19T13:41:55;29.30;99.90
16767;DHT22;8501;49.926;8.404;2023-06-19T13:44:21;29.30;99.90
16767;DHT22;8501;49.926;8.404;2023-06-19T13:46:47;29.20;99.90
16767;DHT22;8501;49.926;8.404;2023-06-19T13:49:12;29.30;99.90
16767;DHT22;8501;49.926;8.404;2023-06-19T13:51:39;29.30;99.90
16767;DHT22;8501;49.926;8.404;2023-06-19T13:54:04;29.30;99.90
16767;DHT22;8501;49.926;8.404;2023-06-19T13:56:30;29.20;99.90
16767;DHT22;8501;49.926;8.404;2023-06-19T13:58:58;29.30;99.90
16767;DHT22;8501;49.926;8.404;2023-06-19T14:01:24;29.40;99.90
16767;DHT22;8501;49.926;8.404;2023-06-19T14:03:51;29.50;99.90
16767;DHT22;8501;49.926;8.404;2023-06-19T14:06:17;29.50;99.90
16767;DHT22;8501;49.926;8.404;2023-06-19T14:08:43;29.50;99.90
16767;DHT22;8501;49.926;8.404;2023-06-19T14:11:09;29.50;99.90
16767;DHT22;8501;49.926;8.404;2023-06-19T14:13:35;29.60;99.90
16767;DHT22;8501;49.926;8.404;2023-06-19T14:16:01;29.70;99.90
16767;DHT22;8501;49.926;8.404;2023-06-19T14:18:27;29.90;99.90
16767;DHT22;8501;49.926;8.404;2023-06-19T14:20:52;30.10;99.90
16767;DHT22;8501;49.926;8.404;2023-06-19T14:23:18;30.30;99.90
16767;DHT22;8501;49.926;8.404;2023-06-19T14:25:43;30.10;99.90
16767;DHT22;8501;49.926;8.404;2023-06-19T14:28:09;30.00;99.90
16767;DHT22;8501;49.926;8.404;2023-06-19T14:30:35;29.90;99.90
16767;DHT22;8501;49.926;8.404;2023-06-19T14:33:00;30.10;99.90
16767;DHT22;8501;49.926;8.404;2023-06-19T14:35:27;30.50;99.90
16767;DHT22;8501;49.926;8.404;2023-06-19T14:37:52;30.70;99.60
16767;DHT22;8501;49.926;8.404;2023-06-19T14:40:18;30.90;99.90
16767;DHT22;8501;49.926;8.404;2023-06-19T14:42:44;31.20;99.70
16767;DHT22;8501;49.926;8.404;2023-06-19T14:45:09;31.40;98.80
16767;DHT22;8501;49.926;8.404;2023-06-19T14:47:35;31.50;98.70
16767;DHT22;8501;49.926;8.404;2023-06-19T14:50:01;31.10;99.40
16767;DHT22;8501;49.926;8.404;2023-06-19T14:52:26;31.00;99.50
16767;DHT22;8501;49.926;8.404;2023-06-19T14:54:52;30.70;99.90
16767;DHT22;8501;49.926;8.404;2023-06-19T14:57:18;30.80;99.70
16767;DHT22;8501;49.926;8.404;2023-06-19T14:59:44;30.90;99.40
16767;DHT22;8501;49.926;8.404;2023-06-19T15:02:10;30.70;99.70
16767;DHT22;8501;49.926;8.404;2023-06-19T15:04:36;30.50;99.90
16767;DHT22;8501;49.926;8.404;2023-06-19T15:07:03;30.30;99.90
16767;DHT22;8501;49.926;8.404;2023-06-19T15:09:28;30.20;99.90
16767;DHT22;8501;49.926;8.404;2023-06-19T15:11:54;30.10;99.90
16767;DHT22;8501;49.926;8.404;2023-06-19T15:14:19;30.10;99.90
16767;DHT22;8501;49.926;8.404;2023-06-19T15:16:45;30.00;99.90
16767;DHT22;8501;49.926;8.404;2023-06-19T15:19:11;30.10;99.90
16767;DHT22;8501;49.926;8.404;2023-06-19T15:21:37;30.20;99.90
16767;DHT22;8501;49.926;8.404;2023-06-19T15:24:02;30.30;99.90
16767;DHT22;8501;49.926;8.404;2023-06-19T15:26:28;30.30;99.90
16767;DHT22;8501;49.926;8.404;2023-06-19T15:28:54;30.40;99.90
16767;DHT22;8501;49.926;8.404;2023-06-19T15:31:23;30.40;99.90
16767;DHT22;8501;49.926;8.404;2023-06-19T15:33:49;30.30;99.90
16767;DHT22;8501;49.926;8.404;2023-06-19T15:36:15;30.30;99.90
16767;DHT22;8501;49.926;8.404;2023-06-19T15:38:41;30.20;99.90
16767;DHT22;8501;49.926;8.404;2023-06-19T15:41:07;30.30;99.90
16767;DHT22;8501;49.926;8.404;2023-06-19T15:43:32;30.20;99.90
16767;DHT22;8501;49.926;8.404;2023-06-19T15:45:58;30.20;99.90